createdAt,value
2023-02-27T00:00:06.874Z,0.88
2023-02-27T00:01:06.957Z,0.87
2023-02-27T00:02:07.060Z,0.91
2023-02-27T00:03:07.101Z,0.95
2023-02-27T00:04:07.234Z,0.90
2023-02-27T00:05:07.219Z,0.89
2023-02-27T00:06:07.321Z,0.93
2023-02-27T00:07:07.363Z,0.87
2023-02-27T00:08:07.450Z,0.86
2023-02-27T00:09:07.602Z,0.90
2023-02-27T00:10:07.596Z,0.98
2023-02-27T00:11:07.657Z,1.11
2023-02-27T00:12:07.725Z,1.20
2023-02-27T00:13:07.809Z,1.16
2023-02-27T00:14:07.888Z,1.33
2023-02-27T00:15:07.932Z,1.49
2023-02-27T00:16:08.023Z,1.36
2023-02-27T00:17:08.065Z,1.46
2023-02-27T00:18:08.158Z,1.62
2023-02-27T00:19:08.213Z,1.57
2023-02-27T00:20:08.291Z,1.67
2023-02-27T00:21:08.336Z,1.84
2023-02-27T00:22:08.410Z,2.02
2023-02-27T00:23:08.456Z,2.18
2023-02-27T00:24:08.537Z,2.06
2023-02-27T00:25:08.595Z,2.15
2023-02-27T00:26:08.619Z,2.60
2023-02-27T00:27:08.687Z,2.44
2023-02-27T00:28:08.739Z,2.82
2023-02-27T00:29:08.869Z,3.05
2023-02-27T00:30:08.864Z,2.42
2023-02-27T00:31:09.065Z,2.69
2023-02-27T00:32:09.051Z,3.00
2023-02-27T00:33:09.029Z,3.04
2023-02-27T00:34:09.060Z,3.67
2023-02-27T00:35:09.152Z,3.24
2023-02-27T00:36:09.141Z,3.47
2023-02-27T00:37:09.191Z,3.27
2023-02-27T00:38:09.229Z,4.50
2023-02-27T00:39:09.256Z,4.56
2023-02-27T00:40:09.306Z,4.85
2023-02-27T00:41:09.334Z,4.53
2023-02-27T00:42:09.387Z,4.60
2023-02-27T00:43:09.447Z,4.45
2023-02-27T00:44:09.472Z,4.41
2023-02-27T00:45:09.533Z,4.18
2023-02-27T00:46:09.548Z,4.33
2023-02-27T00:47:09.565Z,3.87
2023-02-27T00:48:09.656Z,4.37
2023-02-27T00:49:09.731Z,3.70
2023-02-27T00:50:09.666Z,3.48
2023-02-27T00:51:09.740Z,4.02
2023-02-27T00:52:09.785Z,3.25
2023-02-27T00:53:09.812Z,3.09
2023-02-27T00:54:09.866Z,3.62
2023-02-27T00:55:09.912Z,3.30
2023-02-27T00:56:09.984Z,3.61
2023-02-27T00:57:09.992Z,3.46
2023-02-27T00:58:10.023Z,3.27
2023-02-27T00:59:10.052Z,3.33
2023-02-27T01:00:10.115Z,4.23
2023-02-27T01:12:10.530Z,3.31
2023-02-27T01:13:11.361Z,3.38
2023-02-27T01:14:10.617Z,3.41
2023-02-27T01:15:10.624Z,3.27
2023-02-27T01:16:10.698Z,3.90
2023-02-27T01:35:11.319Z,3.15
2023-02-27T01:36:11.341Z,2.86
2023-02-27T01:37:11.377Z,3.23
2023-02-27T01:38:11.443Z,4.33
2023-02-27T01:39:11.457Z,4.16
2023-02-27T01:40:11.510Z,3.45
2023-02-27T01:41:11.541Z,3.87
2023-02-27T01:42:13.175Z,4.13
2023-02-27T01:43:11.581Z,3.48
2023-02-27T01:44:11.604Z,3.46
2023-02-27T01:45:11.652Z,3.53
2023-02-27T01:46:11.703Z,3.48
2023-02-27T01:48:11.755Z,4.08
2023-02-27T01:49:11.774Z,3.61
2023-02-27T01:50:11.814Z,3.59
2023-02-27T01:51:11.797Z,3.50
2023-02-27T01:52:11.841Z,3.87
2023-02-27T01:53:11.891Z,4.21
2023-02-27T01:54:11.893Z,4.09
2023-02-27T01:55:11.917Z,3.69
2023-02-27T01:56:11.971Z,3.55
2023-02-27T01:57:11.969Z,3.40
2023-02-27T01:58:11.994Z,3.47
2023-02-27T01:59:12.038Z,4.01
2023-02-27T02:00:12.077Z,3.81
2023-02-27T02:01:12.125Z,3.95
2023-02-27T02:02:12.132Z,4.17
2023-02-27T02:03:12.168Z,3.78
2023-02-27T02:04:12.161Z,3.84
2023-02-27T02:05:12.217Z,3.48
2023-02-27T02:06:12.238Z,3.39
2023-02-27T02:07:12.267Z,3.51
2023-02-27T02:08:12.289Z,3.38
2023-02-27T02:09:12.339Z,4.51
2023-02-27T02:10:12.365Z,4.96
2023-02-27T02:11:12.410Z,4.54
2023-02-27T02:12:12.439Z,5.18
2023-02-27T02:13:12.480Z,5.11
2023-02-27T02:14:12.512Z,4.56
2023-02-27T02:15:12.516Z,3.56
2023-02-27T02:16:12.570Z,3.21
2023-02-27T02:17:12.602Z,4.03
2023-02-27T02:18:12.657Z,4.28
2023-02-27T02:19:12.681Z,4.74
2023-02-27T02:20:12.770Z,4.39
2023-02-27T02:21:12.818Z,4.32
2023-02-27T02:22:12.883Z,3.87
2023-02-27T02:23:12.991Z,3.89
2023-02-27T02:24:13.046Z,3.98
2023-02-27T02:25:13.088Z,4.55
2023-02-27T03:49:16.497Z,5.27
2023-02-27T03:50:16.545Z,4.38
2023-02-27T03:51:16.603Z,4.35
2023-02-27T03:52:16.644Z,4.46
2023-02-27T03:53:16.742Z,4.95
2023-02-27T03:54:16.779Z,4.99
2023-02-27T03:55:16.812Z,5.18
2023-02-27T03:56:16.903Z,4.65
2023-02-27T03:57:16.937Z,5.26
2023-02-27T03:58:16.957Z,4.96
2023-02-27T03:59:16.991Z,5.42
2023-02-27T04:00:17.060Z,4.29
2023-02-27T04:01:17.789Z,4.37
2023-02-27T04:02:17.162Z,4.41
2023-02-27T04:03:17.256Z,4.41
2023-02-27T04:04:17.294Z,4.28
2023-02-27T04:05:17.334Z,4.61
2023-02-27T04:06:17.362Z,4.76
2023-02-27T04:07:17.447Z,4.63
2023-02-27T04:08:17.492Z,4.67
2023-02-27T04:09:17.586Z,5.07
2023-02-27T04:10:17.631Z,5.50
2023-02-27T04:11:17.679Z,4.83
2023-02-27T04:12:17.753Z,5.15
2023-02-27T04:13:17.805Z,4.65
2023-02-27T04:14:17.854Z,4.70
2023-02-27T04:15:17.898Z,5.08
2023-02-27T04:16:17.955Z,4.75
2023-02-27T04:17:17.992Z,5.10
2023-02-27T04:18:18.027Z,4.69
2023-02-27T04:19:18.098Z,5.32
2023-02-27T04:20:18.140Z,5.59
2023-02-27T04:21:18.208Z,5.12
2023-02-27T04:22:18.262Z,3.36
2023-02-27T04:23:18.280Z,4.18
2023-02-27T04:24:18.350Z,4.00
2023-02-27T04:25:18.404Z,4.65
2023-02-27T04:26:18.471Z,4.59
2023-02-27T04:27:18.480Z,5.00
2023-02-27T04:28:18.586Z,5.58
2023-02-27T04:29:18.609Z,5.25
2023-02-27T04:30:18.646Z,5.18
2023-02-27T04:31:18.785Z,5.04
2023-02-27T04:32:18.851Z,4.56
2023-02-27T04:33:18.805Z,3.58
2023-02-27T04:34:18.853Z,4.87
2023-02-27T04:35:18.930Z,3.54
2023-02-27T04:36:18.943Z,4.42
2023-02-27T04:37:18.977Z,4.14
2023-02-27T04:38:19.026Z,3.89
2023-02-27T04:39:19.104Z,4.00
2023-02-27T04:40:19.167Z,3.46
2023-02-27T04:41:19.191Z,3.52
2023-02-27T04:42:19.213Z,3.49
2023-02-27T06:00:29.539Z,3.03
2023-02-27T06:01:22.535Z,3.04
2023-02-27T06:02:22.554Z,3.03
2023-02-27T06:03:22.539Z,2.75
2023-02-27T06:04:22.523Z,2.94
2023-02-27T06:05:22.565Z,3.07
2023-02-27T06:06:22.552Z,3.26
2023-02-27T06:07:22.547Z,3.51
2023-02-27T06:08:22.564Z,3.29
2023-02-27T06:09:22.583Z,3.40
2023-02-27T06:10:22.559Z,3.36
2023-02-27T06:11:22.619Z,3.66
2023-02-27T06:12:22.591Z,3.69
2023-02-27T06:13:22.586Z,3.48
2023-02-27T06:14:22.604Z,3.58
2023-02-27T06:15:22.632Z,3.42
2023-02-27T06:16:22.639Z,3.20
2023-02-27T06:17:22.637Z,3.33
2023-02-27T06:18:22.623Z,3.43
2023-02-27T06:19:22.659Z,3.51
2023-02-27T06:20:22.639Z,3.68
2023-02-27T06:21:22.656Z,3.67
2023-02-27T06:22:22.675Z,3.76
2023-02-27T06:23:22.701Z,3.24
2023-02-27T06:24:22.706Z,2.04
2023-02-27T06:25:22.678Z,12.13
2023-02-27T06:26:22.716Z,25.96
2023-02-27T06:27:22.705Z,40.13
2023-02-27T06:28:22.729Z,39.53
2023-02-27T06:29:22.720Z,52.42
2023-02-27T06:30:22.776Z,56.95
2023-02-27T06:31:22.719Z,69.70
2023-02-27T06:32:22.887Z,68.73
2023-02-27T06:33:22.746Z,46.83
2023-02-27T06:34:22.764Z,22.89
2023-02-27T06:35:22.773Z,12.32
2023-02-27T06:36:22.784Z,12.40
2023-02-27T06:37:22.788Z,8.64
2023-02-27T06:38:22.835Z,6.35
2023-02-27T06:39:22.895Z,6.71
2023-02-27T06:40:22.859Z,4.52
2023-02-27T06:41:22.879Z,3.15
2023-02-27T06:42:22.876Z,3.20
2023-02-27T06:43:22.926Z,3.30
2023-02-27T06:44:22.907Z,3.63
2023-02-27T11:30:49.686Z,183.47
2023-02-27T13:03:40.700Z,1000.00
2023-02-27T13:04:40.698Z,1000.00
2023-02-27T13:05:40.681Z,784.35
2023-02-27T13:06:40.683Z,709.35
2023-02-27T13:07:40.682Z,485.04
2023-02-27T13:08:40.675Z,393.36
2023-02-27T13:09:40.666Z,424.66
2023-02-27T13:10:40.622Z,453.80
2023-02-27T13:11:40.606Z,434.15
2023-02-27T13:12:40.766Z,373.25
2023-02-27T13:13:40.900Z,373.78
2023-02-27T13:14:40.779Z,418.67
2023-02-27T13:15:40.563Z,403.44
2023-02-27T13:16:40.613Z,380.23
2023-02-27T13:17:40.572Z,370.56
2023-02-27T13:18:40.604Z,349.30
2023-02-27T13:19:40.560Z,335.84
2023-02-27T13:20:40.505Z,320.12
2023-02-27T13:21:40.510Z,312.01
2023-02-27T13:22:40.748Z,304.69
2023-02-27T13:23:40.430Z,301.40
2023-02-27T13:24:40.425Z,289.49
2023-02-27T13:25:40.372Z,256.52
2023-02-27T13:26:40.406Z,262.70
2023-02-27T13:27:40.360Z,255.36
2023-02-27T13:28:40.286Z,236.99
2023-02-27T13:29:40.258Z,227.21
2023-02-27T13:30:40.253Z,235.67
2023-02-27T13:31:40.333Z,241.35
2023-02-27T13:32:44.118Z,216.60
2023-02-27T13:33:40.242Z,201.13
2023-02-27T13:34:40.108Z,200.89
2023-02-27T13:35:40.127Z,199.23
2023-02-27T13:36:40.062Z,199.03
2023-02-27T13:37:40.021Z,188.61
2023-02-27T13:38:39.973Z,171.04
2023-02-27T13:39:39.926Z,170.40
2023-02-27T13:40:39.883Z,178.36
2023-02-27T13:41:39.830Z,171.36
2023-02-27T13:42:39.800Z,161.38
2023-02-27T13:43:51.374Z,157.59
2023-02-27T13:44:40.719Z,148.59
2023-02-27T13:45:39.715Z,150.89
2023-02-27T13:46:39.646Z,155.18
2023-02-27T13:47:39.566Z,143.35
2023-02-27T13:48:39.556Z,129.52
2023-02-27T13:49:39.473Z,125.36
2023-02-27T13:50:39.465Z,134.18
2023-02-27T13:51:39.412Z,129.56
2023-02-27T13:52:39.378Z,122.07
2023-02-27T13:53:39.358Z,114.32
2023-02-27T13:54:39.297Z,128.46
2023-02-27T13:55:39.228Z,129.52
2023-02-27T13:56:39.224Z,113.73
2023-02-27T13:57:39.175Z,87.14
2023-02-27T13:58:39.102Z,91.46
2023-02-27T13:59:39.055Z,79.11
2023-02-27T14:00:39.049Z,82.01
2023-02-27T14:01:39.099Z,86.91
2023-02-27T14:02:46.569Z,85.66
2023-02-27T14:03:39.932Z,83.99
2023-02-27T14:04:38.924Z,78.82
2023-02-27T14:05:38.863Z,75.26
2023-02-27T14:06:38.809Z,72.41
2023-02-27T14:07:38.752Z,69.09
2023-02-27T14:08:38.694Z,64.35
2023-02-27T14:09:38.698Z,59.01
2023-02-27T14:10:38.654Z,54.58
2023-02-27T14:11:38.582Z,48.55
2023-02-27T14:12:45.372Z,39.49
2023-02-27T14:13:39.485Z,39.24
2023-02-27T14:14:38.443Z,34.03
2023-02-27T14:15:38.368Z,31.87
2023-02-27T14:16:38.341Z,23.33
2023-02-27T14:17:38.277Z,19.98
2023-02-27T14:18:38.213Z,24.50
2023-02-27T14:19:38.185Z,34.01
2023-02-27T14:20:38.182Z,41.01
2023-02-27T14:21:38.097Z,40.23
2023-02-27T14:22:38.090Z,31.44
2023-02-27T14:23:38.027Z,29.53
2023-02-27T14:24:37.990Z,31.00
2023-02-27T14:25:37.919Z,41.55
2023-02-27T14:26:37.957Z,44.18
2023-02-27T14:27:37.884Z,45.46
2023-02-27T14:28:37.829Z,48.61
2023-02-27T14:29:37.801Z,50.02
2023-02-27T14:30:37.709Z,49.58
2023-02-27T14:31:37.715Z,55.45
2023-02-27T14:32:37.646Z,55.08
2023-02-27T14:33:40.474Z,60.50
2023-02-27T14:34:37.552Z,56.50
2023-02-27T14:35:37.539Z,54.25
2023-02-27T14:36:37.445Z,58.00
2023-02-27T14:37:37.386Z,53.17
2023-02-27T14:38:37.342Z,54.49
2023-02-27T14:39:37.302Z,54.10
2023-02-27T14:40:37.255Z,56.78
2023-02-27T14:41:37.226Z,63.83
2023-02-27T14:42:37.263Z,60.30
2023-02-27T14:43:37.104Z,59.10
2023-02-27T14:44:37.063Z,62.81
2023-02-27T14:45:37.021Z,63.68
2023-02-27T14:46:37.002Z,65.31
2023-02-27T14:47:36.909Z,65.05
2023-02-27T14:48:36.848Z,61.42
2023-02-27T14:49:36.849Z,62.48
2023-02-27T14:50:36.765Z,62.26
2023-02-27T14:51:36.697Z,63.29
2023-02-27T14:52:36.676Z,64.91
2023-02-27T14:53:36.599Z,67.64
2023-02-27T14:54:36.605Z,71.88
2023-02-27T14:55:36.504Z,70.39
2023-02-27T14:56:36.425Z,67.84
2023-02-27T16:33:34.151Z,56.75
2023-02-27T16:34:44.678Z,62.82
2023-02-27T16:35:35.091Z,61.60
2023-02-27T16:36:34.039Z,62.06
2023-02-27T16:37:34.008Z,59.37
2023-02-27T16:38:33.948Z,61.38
2023-02-27T16:39:33.893Z,61.01
2023-02-27T16:40:33.982Z,65.68
2023-02-27T16:41:33.895Z,65.56
2023-02-27T16:42:33.780Z,67.69
2023-02-27T16:43:33.830Z,69.82
2023-02-27T16:44:33.678Z,72.10
2023-02-27T16:45:33.670Z,74.30
2023-02-27T16:46:33.580Z,77.25
2023-02-27T16:47:33.534Z,81.82
2023-02-27T16:48:33.508Z,83.06
2023-02-27T16:49:33.737Z,86.70
2023-02-27T16:50:33.491Z,84.82
2023-02-27T16:51:33.484Z,86.30
2023-02-27T16:52:33.455Z,81.49
2023-02-27T16:53:33.487Z,84.60
2023-02-27T16:54:33.487Z,84.52
2023-02-27T16:55:33.904Z,84.34
2023-02-27T16:56:38.420Z,81.19
2023-02-27T16:57:34.415Z,81.44
2023-02-27T16:58:33.756Z,82.46
2023-02-27T16:59:33.308Z,84.16
2023-02-27T17:00:33.306Z,66.22
2023-02-27T17:03:33.179Z,40.91
2023-02-27T17:04:33.149Z,31.26
2023-02-27T17:05:33.073Z,29.45
2023-02-27T17:06:33.039Z,35.47
2023-02-27T17:07:32.990Z,43.18
2023-02-27T17:08:33.038Z,45.06
2023-02-27T17:09:32.921Z,42.65
2023-02-27T17:10:32.867Z,43.22
2023-02-27T17:11:32.838Z,45.56
2023-02-27T17:12:32.812Z,48.04
2023-02-27T17:13:32.806Z,46.86
2023-02-27T17:14:32.752Z,47.42
2023-02-27T17:15:32.769Z,47.56
2023-02-27T17:16:32.804Z,48.79
2023-02-27T17:17:32.712Z,48.58
2023-02-27T17:18:32.743Z,45.97
2023-02-27T17:19:32.654Z,45.00
2023-02-27T17:20:32.643Z,45.73
2023-02-27T17:21:32.623Z,44.27
2023-02-27T17:22:32.603Z,44.26
2023-02-27T17:23:32.597Z,45.05
2023-02-27T17:24:32.574Z,46.12
2023-02-27T17:25:32.548Z,39.92
2023-02-27T17:26:32.527Z,36.87
2023-02-27T17:27:32.534Z,39.22
2023-02-27T17:28:32.498Z,39.20
2023-02-27T17:29:32.481Z,36.36
2023-02-27T17:30:32.494Z,38.32
2023-02-27T17:31:32.431Z,38.14
2023-02-27T17:32:32.390Z,41.74
2023-02-27T17:33:32.407Z,35.85
2023-02-27T17:34:32.368Z,36.96
2023-02-27T17:35:32.371Z,36.78
2023-02-27T17:36:32.335Z,36.06
2023-02-27T17:37:32.362Z,34.94
2023-02-27T17:38:32.348Z,35.81
2023-02-27T17:39:32.356Z,36.34
2023-02-27T17:40:32.318Z,34.62
2023-02-27T17:41:32.331Z,33.54
2023-02-27T17:42:32.340Z,33.88
2023-02-27T17:43:32.310Z,32.29
2023-02-27T17:44:32.328Z,30.24
2023-02-27T17:45:32.299Z,26.18
2023-02-27T17:46:32.865Z,24.89
2023-02-27T17:47:32.309Z,24.21
2023-02-27T17:48:32.353Z,24.79
2023-02-27T17:49:32.295Z,25.12
2023-02-27T18:38:31.782Z,13.39
2023-02-27T18:39:31.771Z,12.21
2023-02-27T18:40:31.775Z,12.30
2023-02-27T18:41:31.750Z,11.84
2023-02-27T18:42:31.706Z,11.53
2023-02-27T18:43:31.829Z,11.37
2023-02-27T18:44:31.712Z,12.34
2023-02-27T18:45:31.714Z,12.22
2023-02-27T18:46:32.151Z,12.32
2023-02-27T18:47:31.670Z,11.99
2023-02-27T18:48:31.674Z,11.98
2023-02-27T18:49:31.674Z,11.14
2023-02-27T18:50:31.732Z,12.17
2023-02-27T18:51:31.644Z,11.65
2023-02-27T18:52:31.646Z,11.23
2023-02-27T18:53:31.660Z,11.77
2023-02-27T18:54:31.626Z,11.77
2023-02-27T18:55:31.643Z,11.89
2023-02-27T18:56:31.942Z,11.92
2023-02-27T18:57:31.608Z,11.40
2023-02-27T18:58:31.625Z,10.87
2023-02-27T18:59:31.633Z,10.79
2023-02-27T19:00:31.604Z,11.63
2023-02-27T19:01:31.626Z,11.53
2023-02-27T19:02:31.687Z,11.72
2023-02-27T19:03:31.715Z,11.53
2023-02-27T19:04:31.567Z,11.18
2023-02-27T19:05:31.561Z,10.57
2023-02-27T19:06:31.538Z,9.78
2023-02-27T19:07:31.520Z,10.32
2023-02-27T19:08:31.522Z,10.53
2023-02-27T19:09:31.509Z,10.58
2023-02-27T19:10:31.562Z,10.65
2023-02-27T19:11:31.525Z,10.70
2023-02-27T19:12:31.500Z,10.76
2023-02-27T19:13:31.505Z,10.35
2023-02-27T19:14:31.534Z,10.33
2023-02-27T19:15:31.588Z,10.02
2023-02-27T19:16:31.933Z,9.93
2023-02-27T19:17:31.510Z,9.45
2023-02-27T19:18:31.526Z,9.19
2023-02-27T19:19:31.535Z,9.70
2023-02-27T19:20:31.534Z,9.27
2023-02-27T19:21:31.540Z,9.73
2023-02-27T19:22:31.540Z,9.36
2023-02-27T19:23:31.506Z,9.00
2023-02-27T19:24:31.506Z,8.99
2023-02-27T19:25:31.524Z,8.96
2023-02-27T19:26:31.773Z,9.21
2023-02-27T19:27:31.531Z,9.04
2023-02-27T19:28:31.550Z,9.31
2023-02-27T19:29:31.543Z,9.09
2023-02-27T19:30:31.517Z,9.13
2023-02-27T19:31:31.758Z,8.54
2023-02-27T19:32:31.561Z,8.69
2023-02-27T19:33:31.535Z,8.86
2023-02-27T19:34:31.558Z,8.66
2023-02-27T19:35:31.580Z,8.57
2023-02-27T19:36:31.680Z,8.59
2023-02-27T19:37:31.550Z,8.39
2023-02-27T19:38:31.571Z,8.36
2023-02-27T19:39:31.577Z,8.15
2023-02-27T19:40:31.577Z,8.19
2023-02-27T19:41:33.430Z,8.31
2023-02-27T19:42:31.561Z,8.13
2023-02-27T19:43:31.558Z,7.85
2023-02-27T19:44:31.560Z,8.02
2023-02-27T19:45:31.572Z,7.93
2023-02-27T19:46:32.028Z,8.14
2023-02-27T19:47:31.592Z,7.66
2023-02-27T19:48:31.583Z,7.54
2023-02-27T19:49:31.571Z,7.68
2023-02-27T19:50:31.564Z,7.41
2023-02-27T19:51:31.555Z,7.73
2023-02-27T19:52:31.596Z,7.76
2023-02-27T19:53:31.593Z,7.62
2023-02-27T19:54:31.564Z,7.37
2023-02-27T19:55:31.555Z,7.49
2023-02-27T19:56:31.928Z,7.28
2023-02-27T19:57:31.580Z,7.25
2023-02-27T19:58:31.582Z,7.74
2023-02-27T19:59:31.607Z,7.46
2023-02-27T20:00:31.606Z,7.17
2023-02-27T20:01:31.594Z,6.92
2023-02-27T20:02:31.574Z,7.27
2023-02-27T20:03:31.624Z,7.34
2023-02-27T20:04:31.591Z,7.52
2023-02-27T20:05:31.590Z,7.53
2023-02-27T20:06:31.757Z,7.61
2023-02-27T20:07:31.581Z,7.04
2023-02-27T20:08:31.578Z,7.15
2023-02-27T20:09:31.585Z,6.81
2023-02-27T20:10:31.611Z,6.90
2023-02-27T20:11:31.600Z,6.70
2023-02-27T20:12:31.606Z,6.86
2023-02-27T20:13:31.636Z,6.62
2023-02-27T20:14:31.630Z,6.74
2023-02-27T20:15:31.629Z,6.71
2023-02-27T20:16:31.956Z,6.40
2023-02-27T20:17:31.602Z,6.65
2023-02-27T20:18:31.627Z,6.54
2023-02-27T20:19:31.616Z,6.61
2023-02-27T20:20:32.111Z,6.60
2023-02-27T20:21:32.012Z,6.85
2023-02-27T20:22:31.615Z,6.80
2023-02-27T20:23:31.653Z,6.69
2023-02-27T20:24:31.637Z,6.49
2023-02-27T20:25:31.602Z,6.77
2023-02-27T20:26:31.778Z,6.80
2023-02-27T20:27:31.622Z,6.56
2023-02-27T20:28:31.598Z,6.37
2023-02-27T20:29:31.610Z,6.33
2023-02-27T20:30:31.632Z,6.35
2023-02-27T20:31:32.013Z,6.17
2023-02-27T20:32:31.846Z,6.24
2023-02-27T20:33:31.658Z,6.11
2023-02-27T20:34:31.641Z,6.23
2023-02-27T20:35:31.656Z,6.18
2023-02-27T20:36:31.642Z,6.04
2023-02-27T20:37:31.638Z,5.95
2023-02-27T20:38:31.647Z,5.89
2023-02-27T20:39:31.663Z,5.96
2023-02-27T20:40:31.646Z,5.96
2023-02-27T20:41:31.902Z,6.00
2023-02-27T20:42:31.636Z,5.97
2023-02-27T20:43:31.645Z,5.68
2023-02-27T20:44:31.656Z,5.85
2023-02-27T20:45:31.667Z,5.92
2023-02-27T20:46:31.652Z,5.76
2023-02-27T20:47:31.652Z,5.67
2023-02-27T20:48:31.658Z,5.48
2023-02-27T20:49:31.656Z,5.86
2023-02-27T20:50:31.687Z,5.74
2023-02-27T20:51:31.899Z,5.46
2023-02-27T20:52:31.669Z,5.61
2023-02-27T20:53:31.689Z,5.25
2023-02-27T20:54:31.681Z,5.19
2023-02-27T20:55:31.664Z,5.20
2023-02-27T20:56:31.701Z,5.10
2023-02-27T20:57:31.681Z,5.27
2023-02-27T20:58:31.686Z,5.15
2023-02-27T20:59:31.694Z,5.09
2023-02-27T21:00:31.697Z,5.05
2023-02-27T21:01:32.256Z,5.08
2023-02-27T21:02:31.653Z,5.18
2023-02-27T21:03:38.543Z,5.17
2023-02-27T21:04:32.821Z,5.17
2023-02-27T21:05:31.594Z,5.12
2023-02-27T21:06:31.587Z,4.94
2023-02-27T21:07:31.566Z,5.27
2023-02-27T21:08:31.549Z,5.18
2023-02-27T21:09:31.502Z,5.22
2023-02-27T21:10:31.484Z,5.14
2023-02-27T21:11:31.737Z,5.22
2023-02-27T21:12:31.399Z,5.09
2023-02-27T21:13:31.423Z,5.16
2023-02-27T21:14:31.352Z,5.07
2023-02-27T21:15:31.333Z,5.07
2023-02-27T21:17:31.275Z,4.87
2023-02-27T21:18:31.260Z,4.92
2023-02-27T21:19:31.257Z,4.85
2023-02-27T21:20:31.230Z,5.01
2023-02-27T21:21:31.570Z,4.91
2023-02-27T21:22:31.232Z,4.75
2023-02-27T21:23:31.240Z,4.75
2023-02-27T21:24:31.210Z,4.84
2023-02-27T21:25:31.223Z,4.78
2023-02-27T21:26:33.275Z,4.92
2023-02-27T21:27:31.207Z,4.95
2023-02-27T21:28:31.195Z,4.61
2023-02-27T21:29:31.137Z,4.84
2023-02-27T21:30:31.124Z,4.87
2023-02-27T21:31:31.622Z,4.90
2023-02-27T21:32:31.046Z,4.82
2023-02-27T21:33:31.027Z,4.76
2023-02-27T21:34:31.017Z,4.68
2023-02-27T21:35:31.068Z,4.75
2023-02-27T21:36:30.956Z,4.88
2023-02-27T21:37:30.906Z,4.96
2023-02-27T21:38:30.930Z,4.91
2023-02-27T21:39:30.861Z,4.93
2023-02-27T21:40:30.807Z,4.64
2023-02-27T21:41:31.110Z,4.73
2023-02-27T21:42:30.743Z,4.86
2023-02-27T21:43:30.740Z,4.82
2023-02-27T21:44:30.679Z,4.64
2023-02-27T21:45:30.675Z,4.69
2023-02-27T21:46:30.627Z,4.67
2023-02-27T21:47:30.693Z,4.63
2023-02-27T21:48:30.590Z,4.57
2023-02-27T21:49:30.540Z,4.67
2023-02-27T21:50:30.502Z,4.72
2023-02-27T21:51:39.910Z,4.74
2023-02-27T21:52:31.492Z,4.74
2023-02-27T21:53:30.431Z,4.41
2023-02-27T21:54:30.404Z,4.57
2023-02-27T21:55:30.384Z,4.75
2023-02-27T21:56:30.523Z,4.57
2023-02-27T21:57:30.315Z,4.36
2023-02-27T21:58:30.283Z,4.57
2023-02-27T21:59:30.251Z,4.30
2023-02-27T23:12:30.294Z,2.94
2023-02-27T23:13:30.265Z,3.02
2023-02-27T23:14:30.285Z,2.98
2023-02-27T23:15:30.306Z,3.06
2023-02-27T23:16:30.329Z,3.00
2023-02-27T23:17:30.316Z,2.80
2023-02-27T23:18:30.361Z,2.70
2023-02-27T23:19:30.369Z,2.76
2023-02-27T23:20:30.326Z,2.81
2023-02-27T23:21:30.820Z,2.77
2023-02-27T23:22:30.372Z,2.86
2023-02-27T23:23:30.385Z,2.79
2023-02-27T23:24:30.385Z,2.80
2023-02-27T23:25:30.396Z,2.85
2023-02-27T23:26:30.425Z,2.89
2023-02-27T23:27:30.440Z,2.88
2023-02-27T23:28:30.440Z,2.87
